createdAt,value
2022-07-29T00:01:01.903Z,79.39
2022-07-29T00:03:28.467Z,80.55
2022-07-29T00:05:54.893Z,80.21
2022-07-29T00:08:21.347Z,80.96
2022-07-29T00:10:47.991Z,81.02
2022-07-29T00:13:14.406Z,81.42
2022-07-29T00:15:40.867Z,81.73
2022-07-29T00:18:07.582Z,83.33
2022-07-29T00:20:33.958Z,82.70
2022-07-29T00:23:00.361Z,82.31
2022-07-29T00:25:26.758Z,83.54
2022-07-29T00:27:53.170Z,83.10
2022-07-29T00:30:19.571Z,83.06
2022-07-29T00:32:46.449Z,81.56
2022-07-29T00:35:31.477Z,83.23
2022-07-29T00:38:00.354Z,82.62
2022-07-29T00:40:28.621Z,83.42
2022-07-29T00:42:55.004Z,83.00
2022-07-29T00:45:22.875Z,82.99
2022-07-29T00:47:49.325Z,84.11
2022-07-29T00:50:15.938Z,82.51
2022-07-29T00:52:43.500Z,83.31
2022-07-29T00:55:13.116Z,84.49
2022-07-29T00:57:41.002Z,84.68
2022-07-29T01:00:10.541Z,83.20
2022-07-29T01:02:36.966Z,83.96
2022-07-29T01:05:05.950Z,83.56
2022-07-29T01:07:37.810Z,84.39
2022-07-29T01:10:05.715Z,85.18
2022-07-29T01:12:34.340Z,85.40
2022-07-29T01:15:03.087Z,84.66
2022-07-29T01:17:32.371Z,85.51
2022-07-29T01:20:31.334Z,84.74
2022-07-29T01:23:07.036Z,85.11
2022-07-29T01:26:01.308Z,85.42
2022-07-29T01:28:47.790Z,85.70
2022-07-29T01:31:25.251Z,84.81
2022-07-29T01:34:01.282Z,85.02
2022-07-29T01:37:03.489Z,85.63
2022-07-29T01:39:33.792Z,86.16
2022-07-29T01:42:30.417Z,86.75
2022-07-29T01:45:15.317Z,85.43
2022-07-29T01:47:47.555Z,84.89
2022-07-29T01:50:18.231Z,86.08
2022-07-29T01:52:50.610Z,85.67
2022-07-29T01:55:20.540Z,86.85
2022-07-29T01:57:49.143Z,86.88
2022-07-29T02:00:16.966Z,85.02
2022-07-29T02:02:46.652Z,86.21
2022-07-29T02:05:16.716Z,88.85
2022-07-29T02:07:45.399Z,92.01
2022-07-29T02:10:14.223Z,91.96
2022-07-29T02:12:43.421Z,93.50
2022-07-29T02:15:18.011Z,92.88
2022-07-29T02:17:56.219Z,91.60
2022-07-29T02:20:25.968Z,92.53
2022-07-29T02:22:54.776Z,93.07
2022-07-29T02:25:23.152Z,93.82
2022-07-29T02:27:53.052Z,94.25
2022-07-29T02:30:22.598Z,95.27
2022-07-29T02:32:50.407Z,99.51
2022-07-29T02:35:17.804Z,100.00
2022-07-29T02:37:46.292Z,100.00
2022-07-29T02:40:15.422Z,100.00
2022-07-29T02:42:44.817Z,100.00
2022-07-29T02:45:11.803Z,100.00
2022-07-29T02:47:44.552Z,100.00
2022-07-29T02:50:18.748Z,100.00
2022-07-29T02:52:48.515Z,100.00
2022-07-29T02:55:26.118Z,100.00
2022-07-29T02:58:00.564Z,100.00
2022-07-29T03:00:30.358Z,100.00
2022-07-29T03:03:00.235Z,100.00
2022-07-29T03:05:27.266Z,100.00
2022-07-29T03:08:01.204Z,100.00
2022-07-29T03:10:28.927Z,100.00
2022-07-29T03:12:56.731Z,100.00
2022-07-29T03:15:24.029Z,100.00
2022-07-29T03:17:52.535Z,100.00
2022-07-29T03:20:19.176Z,100.00
2022-07-29T03:22:47.891Z,100.00
2022-07-29T03:25:16.460Z,100.00
2022-07-29T03:27:43.683Z,100.00
2022-07-29T03:30:11.507Z,100.00
2022-07-29T03:32:38.526Z,100.00
2022-07-29T03:35:07.343Z,100.00
2022-07-29T03:37:34.457Z,100.00
2022-07-29T03:40:04.053Z,100.00
2022-07-29T03:42:34.505Z,100.00
2022-07-29T03:45:04.234Z,100.00
2022-07-29T03:47:47.977Z,100.00
2022-07-29T03:50:20.212Z,100.00
2022-07-29T03:52:47.533Z,100.00
2022-07-29T03:55:14.886Z,100.00
2022-07-29T03:57:41.948Z,100.00
2022-07-29T04:00:09.979Z,100.00
2022-07-29T04:02:37.367Z,100.00
2022-07-29T04:05:04.009Z,100.00
2022-07-29T04:07:30.703Z,100.00
2022-07-29T04:09:57.136Z,100.00
2022-07-29T04:12:23.822Z,100.00
2022-07-29T04:14:51.092Z,100.00
2022-07-29T04:17:17.842Z,100.00
2022-07-29T04:19:44.236Z,100.00
2022-07-29T04:22:10.634Z,100.00
2022-07-29T04:24:37.004Z,100.00
2022-07-29T04:27:03.458Z,100.00
2022-07-29T04:29:29.818Z,100.00
2022-07-29T04:31:56.221Z,100.00
2022-07-29T04:34:22.672Z,100.00
2022-07-29T04:36:54.436Z,100.00
2022-07-29T04:39:23.068Z,100.00
2022-07-29T04:41:51.052Z,100.00
2022-07-29T04:44:19.493Z,100.00
2022-07-29T04:46:46.344Z,100.00
2022-07-29T04:49:12.932Z,100.00
2022-07-29T04:51:39.508Z,100.00
2022-07-29T04:54:07.019Z,100.00
2022-07-29T04:56:33.487Z,100.00
2022-07-29T04:58:59.830Z,100.00
2022-07-29T05:01:26.263Z,100.00
2022-07-29T05:03:55.931Z,100.00
2022-07-29T05:06:26.356Z,100.00
2022-07-29T05:08:52.716Z,100.00
2022-07-29T05:11:21.846Z,100.00
2022-07-29T05:13:49.789Z,100.00
2022-07-29T05:16:16.304Z,100.00
2022-07-29T05:18:43.116Z,100.00
2022-07-29T05:21:09.596Z,100.00
2022-07-29T05:23:35.951Z,100.00
2022-07-29T05:26:02.636Z,100.00
2022-07-29T05:28:29.156Z,100.00
2022-07-29T05:30:55.550Z,100.00
2022-07-29T05:33:35.807Z,100.00
2022-07-29T05:36:06.393Z,100.00
2022-07-29T05:38:32.876Z,100.00
2022-07-29T05:41:00.349Z,100.00
2022-07-29T05:43:30.478Z,100.00
2022-07-29T05:45:57.131Z,100.00
2022-07-29T05:48:23.972Z,100.00
2022-07-29T05:50:50.337Z,100.00
2022-07-29T05:53:18.869Z,100.00
2022-07-29T05:55:46.762Z,100.00
2022-07-29T05:58:13.342Z,100.00
2022-07-29T06:00:39.728Z,100.00
2022-07-29T06:03:06.341Z,100.00
2022-07-29T06:05:32.749Z,100.00
2022-07-29T06:07:59.165Z,100.00
2022-07-29T06:10:27.042Z,100.00
2022-07-29T06:12:53.786Z,100.00
2022-07-29T06:15:20.390Z,100.00
2022-07-29T06:18:00.524Z,100.00
2022-07-29T06:20:32.434Z,100.00
2022-07-29T06:23:00.114Z,100.00
2022-07-29T06:25:28.356Z,100.00
2022-07-29T06:27:54.887Z,100.00
2022-07-29T06:30:21.313Z,100.00
2022-07-29T06:32:48.111Z,100.00
2022-07-29T06:38:01.206Z,100.00
2022-07-29T06:40:46.421Z,100.00
2022-07-29T06:43:12.828Z,100.00
2022-07-29T06:45:42.176Z,100.00
2022-07-29T06:48:09.063Z,100.00
2022-07-29T06:50:35.538Z,100.00
2022-07-29T06:53:01.921Z,100.00
2022-07-29T06:55:28.535Z,100.00
2022-07-29T06:57:54.899Z,100.00
2022-07-29T07:00:21.428Z,100.00
2022-07-29T07:02:47.888Z,100.00
2022-07-29T07:05:14.315Z,100.00
2022-07-29T07:07:40.687Z,100.00
2022-07-29T07:10:07.444Z,100.00
2022-07-29T07:12:33.865Z,100.00
2022-07-29T07:15:00.390Z,100.00
2022-07-29T07:17:26.792Z,100.00
2022-07-29T07:19:53.153Z,100.00
2022-07-29T07:22:19.544Z,100.00
2022-07-29T07:24:45.939Z,100.00
2022-07-29T07:27:12.440Z,100.00
2022-07-29T07:29:41.987Z,100.00
2022-07-29T07:32:11.093Z,100.00
2022-07-29T07:34:38.840Z,100.00
2022-07-29T07:37:06.029Z,100.00
2022-07-29T07:39:32.583Z,100.00
2022-07-29T07:41:59.663Z,100.00
2022-07-29T07:44:26.049Z,100.00
2022-07-29T07:46:52.555Z,100.00
2022-07-29T07:49:19.607Z,100.00
2022-07-29T07:51:50.540Z,100.00
2022-07-29T07:54:18.446Z,100.00
2022-07-29T07:56:49.825Z,100.00
2022-07-29T07:59:19.309Z,100.00
2022-07-29T08:01:47.801Z,100.00
2022-07-29T08:04:27.100Z,100.00
2022-07-29T08:06:57.814Z,100.00
2022-07-29T08:09:30.305Z,100.00
2022-07-29T08:11:59.724Z,100.00
2022-07-29T08:14:26.249Z,100.00
2022-07-29T08:16:52.713Z,100.00
2022-07-29T08:19:19.476Z,100.00
2022-07-29T08:21:46.406Z,100.00
2022-07-29T08:24:31.375Z,100.00
2022-07-29T08:26:57.771Z,100.00
2022-07-29T08:29:24.127Z,100.00
2022-07-29T08:31:50.810Z,100.00
2022-07-29T08:34:17.726Z,100.00
2022-07-29T08:36:44.157Z,100.00
2022-07-29T08:39:13.516Z,100.00
2022-07-29T08:41:40.044Z,100.00
2022-07-29T08:44:06.432Z,100.00
2022-07-29T08:46:32.925Z,100.00
2022-07-29T08:48:59.429Z,100.00
2022-07-29T08:51:26.414Z,100.00
2022-07-29T08:53:53.848Z,100.00
2022-07-29T08:56:21.546Z,100.00
2022-07-29T08:58:52.343Z,100.00
2022-07-29T09:01:23.571Z,100.00
2022-07-29T09:04:05.306Z,100.00
2022-07-29T09:06:35.465Z,100.00
2022-07-29T09:09:02.255Z,100.00
2022-07-29T09:11:29.410Z,100.00
2022-07-29T09:13:55.907Z,100.00
2022-07-29T09:16:43.864Z,100.00
2022-07-29T09:19:27.443Z,100.00
2022-07-29T09:22:03.762Z,100.00
2022-07-29T09:24:47.777Z,100.00
2022-07-29T09:27:26.860Z,100.00
2022-07-29T09:29:58.420Z,100.00
2022-07-29T09:32:24.843Z,100.00
2022-07-29T09:34:53.645Z,100.00
2022-07-29T09:37:30.041Z,100.00
2022-07-29T09:39:56.433Z,100.00
2022-07-29T09:42:31.102Z,100.00
2022-07-29T09:44:57.586Z,100.00
2022-07-29T09:47:42.449Z,100.00
2022-07-29T09:50:09.130Z,100.00
2022-07-29T09:52:46.274Z,100.00
2022-07-29T09:55:13.550Z,100.00
2022-07-29T09:57:45.368Z,100.00
2022-07-29T10:00:15.735Z,100.00
2022-07-29T10:02:47.042Z,100.00
2022-07-29T10:05:36.841Z,100.00
2022-07-29T10:08:03.962Z,97.21
2022-07-29T10:10:32.557Z,94.64
2022-07-29T10:13:15.214Z,96.71
2022-07-29T10:15:46.336Z,92.12
2022-07-29T10:18:14.456Z,89.09
2022-07-29T10:20:45.353Z,87.12
2022-07-29T10:23:18.096Z,87.31
2022-07-29T10:25:47.078Z,86.33
2022-07-29T10:28:17.312Z,84.34
2022-07-29T10:30:45.565Z,80.35
2022-07-29T10:33:15.629Z,78.08
2022-07-29T10:35:55.310Z,79.13
2022-07-29T10:38:47.211Z,75.94
2022-07-29T10:41:47.990Z,75.69
2022-07-29T10:44:23.033Z,78.76
2022-07-29T10:46:51.561Z,75.94
2022-07-29T10:49:25.161Z,76.77
2022-07-29T10:52:10.302Z,74.02
2022-07-29T10:54:42.537Z,75.09
2022-07-29T10:57:13.859Z,72.74
2022-07-29T10:59:41.826Z,73.94
2022-07-29T11:02:42.131Z,75.12
2022-07-29T11:05:20.257Z,74.18
2022-07-29T11:08:20.468Z,71.73
2022-07-29T11:10:48.200Z,74.67
2022-07-29T11:13:44.050Z,73.42
2022-07-29T11:16:10.503Z,72.37
2022-07-29T11:19:29.860Z,69.81
2022-07-29T11:22:05.596Z,67.25
2022-07-29T11:24:34.813Z,69.18
2022-07-29T11:27:13.192Z,68.56
2022-07-29T11:29:51.983Z,66.30
2022-07-29T11:32:23.192Z,66.86
2022-07-29T11:38:27.872Z,66.14
2022-07-29T11:41:23.661Z,63.84
2022-07-29T11:43:52.211Z,67.30
2022-07-29T11:46:50.806Z,64.30
2022-07-29T11:49:32.312Z,64.72
2022-07-29T11:52:02.316Z,64.71
2022-07-29T11:54:38.846Z,65.80
2022-07-29T11:57:22.287Z,66.49
2022-07-29T11:59:49.083Z,66.44
2022-07-29T12:02:37.734Z,65.15
2022-07-29T12:05:10.566Z,66.83
2022-07-29T12:07:45.479Z,67.16
2022-07-29T12:10:20.124Z,67.33
2022-07-29T12:12:56.503Z,68.10
2022-07-29T12:15:24.902Z,68.09
2022-07-29T12:18:14.102Z,67.96
2022-07-29T12:20:40.833Z,67.48
2022-07-29T12:23:09.817Z,67.03
2022-07-29T12:25:38.012Z,64.70
2022-07-29T12:28:07.012Z,65.38
2022-07-29T12:30:39.875Z,64.88
2022-07-29T12:33:16.963Z,60.68
2022-07-29T12:36:06.223Z,63.92
2022-07-29T12:38:35.809Z,61.28
2022-07-29T12:41:04.470Z,59.49
2022-07-29T12:43:31.739Z,59.06
2022-07-29T12:45:58.823Z,59.41
2022-07-29T12:48:35.380Z,57.96
2022-07-29T12:51:03.933Z,57.59
2022-07-29T12:53:30.716Z,55.92
2022-07-29T12:56:07.936Z,55.16
2022-07-29T12:58:42.880Z,53.75
2022-07-29T13:01:20.898Z,55.49
2022-07-29T13:03:59.799Z,53.80
2022-07-29T13:06:45.983Z,53.49
2022-07-29T13:09:18.716Z,50.23
2022-07-29T13:11:58.719Z,51.16
2022-07-29T13:14:35.787Z,52.49
2022-07-29T13:17:05.087Z,54.08
2022-07-29T13:19:42.299Z,53.75
2022-07-29T13:22:16.070Z,53.08
2022-07-29T13:24:56.178Z,52.47
2022-07-29T13:27:25.348Z,50.75
2022-07-29T13:29:53.344Z,52.42
2022-07-29T13:32:28.210Z,53.46
2022-07-29T13:34:56.394Z,53.55
2022-07-29T13:37:22.954Z,53.39
2022-07-29T13:39:53.117Z,52.27
2022-07-29T13:42:20.062Z,53.46
2022-07-29T13:44:46.636Z,52.31
2022-07-29T13:47:13.662Z,55.43
2022-07-29T13:49:40.091Z,52.38
2022-07-29T13:52:08.321Z,50.87
2022-07-29T13:54:42.053Z,53.01
2022-07-29T13:57:09.294Z,52.47
2022-07-29T13:59:35.628Z,50.64
2022-07-29T14:02:01.977Z,52.99
2022-07-29T14:04:28.426Z,52.90
2022-07-29T14:06:55.129Z,51.56
2022-07-29T14:09:21.589Z,50.39
2022-07-29T14:11:50.558Z,50.43
2022-07-29T14:14:16.947Z,50.87
2022-07-29T14:16:47.739Z,52.40
2022-07-29T14:19:16.917Z,51.27
2022-07-29T14:21:43.370Z,50.52
2022-07-29T14:24:21.484Z,50.93
2022-07-29T14:26:48.478Z,51.07
2022-07-29T14:29:14.907Z,50.18
2022-07-29T14:31:41.401Z,51.02
2022-07-29T14:34:07.850Z,49.80
2022-07-29T14:36:34.207Z,51.10
2022-07-29T14:39:00.575Z,49.37
2022-07-29T14:41:29.088Z,49.39
2022-07-29T14:43:55.499Z,51.76
2022-07-29T14:46:21.894Z,52.29
2022-07-29T14:48:48.394Z,50.87
2022-07-29T14:51:14.876Z,51.04
2022-07-29T14:53:41.250Z,51.46
2022-07-29T14:56:34.292Z,52.85
2022-07-29T14:58:54.001Z,53.23
2022-07-29T15:01:20.641Z,51.99
2022-07-29T15:03:47.036Z,50.79
2022-07-29T15:06:13.440Z,52.67
2022-07-29T15:08:39.881Z,52.24
2022-07-29T15:11:06.322Z,53.73
2022-07-29T15:13:33.580Z,52.15
2022-07-29T15:16:03.858Z,52.50
2022-07-29T15:18:30.275Z,54.51
2022-07-29T15:20:56.659Z,55.56
2022-07-29T15:23:23.141Z,55.22
2022-07-29T15:25:49.516Z,55.60
2022-07-29T15:28:15.878Z,53.54
2022-07-29T15:30:42.289Z,54.38
2022-07-29T15:33:12.427Z,57.27
2022-07-29T15:35:40.444Z,57.15
2022-07-29T15:38:08.110Z,57.53
2022-07-29T15:40:35.180Z,56.81
2022-07-29T15:43:06.521Z,55.16
2022-07-29T15:45:42.034Z,55.00
2022-07-29T15:48:09.894Z,54.90
2022-07-29T15:50:41.220Z,55.49
2022-07-29T15:53:07.593Z,56.27
2022-07-29T15:55:33.953Z,57.05
2022-07-29T15:58:00.998Z,58.23
2022-07-29T16:00:27.854Z,57.85
2022-07-29T16:02:54.272Z,59.00
2022-07-29T16:05:20.688Z,60.02
2022-07-29T16:07:47.083Z,60.43
2022-07-29T16:10:13.541Z,60.74
2022-07-29T16:12:40.224Z,60.38
2022-07-29T16:15:10.245Z,60.14
2022-07-29T16:17:38.184Z,58.44
2022-07-29T16:20:06.129Z,60.43
2022-07-29T16:22:32.479Z,59.60
2022-07-29T16:24:58.883Z,59.61
2022-07-29T16:27:35.545Z,57.57
2022-07-29T16:30:06.843Z,58.79
2022-07-29T16:32:33.799Z,60.81
2022-07-29T16:35:02.211Z,62.02
2022-07-29T16:37:33.387Z,62.50
2022-07-29T16:39:59.791Z,63.41
2022-07-29T16:42:45.478Z,65.05
2022-07-29T16:45:12.627Z,65.90
2022-07-29T16:47:38.986Z,67.95
2022-07-29T16:50:06.091Z,67.99
2022-07-29T16:52:32.538Z,68.87
2022-07-29T16:54:58.903Z,71.57
2022-07-29T16:57:25.278Z,70.78
2022-07-29T16:59:52.086Z,72.23
2022-07-29T17:02:18.652Z,76.76
2022-07-29T17:04:45.107Z,80.34
2022-07-29T17:07:11.793Z,85.27
2022-07-29T17:09:38.206Z,83.53
2022-07-29T17:12:05.164Z,85.32
2022-07-29T17:14:31.747Z,88.63
2022-07-29T17:17:01.991Z,90.87
2022-07-29T17:19:31.279Z,90.79
2022-07-29T17:22:06.374Z,97.60
2022-07-29T17:24:37.016Z,98.25
2022-07-29T17:27:04.660Z,100.00
2022-07-29T17:29:31.178Z,100.00
2022-07-29T17:31:59.405Z,100.00
2022-07-29T17:34:26.452Z,100.00
2022-07-29T17:36:53.051Z,100.00
2022-07-29T17:39:19.709Z,100.00
2022-07-29T17:41:46.793Z,100.00
2022-07-29T17:44:13.454Z,100.00
2022-07-29T17:46:40.514Z,100.00
2022-07-29T17:49:07.140Z,100.00
2022-07-29T17:51:33.589Z,100.00
2022-07-29T17:54:00.313Z,100.00
2022-07-29T17:56:26.675Z,100.00
2022-07-29T17:58:53.294Z,100.00
2022-07-29T18:01:20.226Z,100.00
2022-07-29T18:03:47.070Z,100.00
2022-07-29T18:06:13.630Z,100.00
2022-07-29T18:08:40.428Z,100.00
2022-07-29T18:11:07.004Z,100.00
2022-07-29T18:13:33.666Z,100.00
2022-07-29T18:16:00.836Z,100.00
2022-07-29T18:18:27.689Z,100.00
2022-07-29T18:20:54.169Z,100.00
2022-07-29T18:23:20.594Z,100.00
2022-07-29T18:25:47.125Z,99.16
2022-07-29T18:28:13.552Z,96.91
2022-07-29T18:30:39.920Z,96.60
2022-07-29T18:33:24.261Z,98.86
2022-07-29T18:35:52.846Z,99.13
2022-07-29T18:38:37.263Z,100.00
2022-07-29T18:41:03.691Z,100.00
2022-07-29T18:43:30.149Z,100.00
2022-07-29T18:45:56.613Z,100.00
2022-07-29T18:48:24.023Z,100.00
2022-07-29T18:50:50.546Z,100.00
2022-07-29T18:53:17.382Z,100.00
2022-07-29T18:55:43.794Z,97.78
2022-07-29T18:58:10.160Z,93.49
2022-07-29T19:00:36.541Z,97.85
2022-07-29T19:03:03.520Z,94.65
2022-07-29T19:05:30.270Z,93.64
2022-07-29T19:07:56.664Z,90.40
2022-07-29T19:10:23.066Z,93.42
2022-07-29T19:12:49.685Z,96.11
2022-07-29T19:15:19.997Z,93.20
2022-07-29T19:17:47.907Z,91.22
2022-07-29T19:20:14.553Z,96.27
2022-07-29T19:22:40.912Z,96.43
2022-07-29T19:25:07.755Z,97.77
2022-07-29T19:27:34.147Z,91.26
2022-07-29T19:30:00.503Z,94.09
2022-07-29T19:32:26.936Z,94.15
2022-07-29T19:35:11.993Z,92.85
2022-07-29T19:37:38.408Z,91.39
2022-07-29T19:40:06.141Z,98.04
2022-07-29T19:42:32.537Z,94.79
2022-07-29T19:44:58.943Z,94.24
2022-07-29T19:47:25.313Z,95.14
2022-07-29T19:49:51.759Z,95.46
2022-07-29T19:52:18.239Z,98.57
2022-07-29T19:54:44.619Z,94.61
2022-07-29T19:57:10.977Z,96.75
2022-07-29T19:59:37.719Z,97.51
2022-07-29T20:02:04.221Z,97.26
2022-07-29T20:04:30.675Z,94.68
2022-07-29T20:07:01.369Z,96.26
2022-07-29T20:09:28.295Z,100.00
2022-07-29T20:11:54.736Z,98.66
2022-07-29T20:14:21.539Z,99.20
2022-07-29T20:16:48.070Z,98.30
2022-07-29T20:19:16.811Z,97.39
2022-07-29T20:21:44.296Z,97.25
2022-07-29T20:24:11.131Z,97.25
2022-07-29T20:26:38.758Z,97.67
2022-07-29T20:29:05.347Z,97.53
2022-07-29T20:31:32.461Z,97.23
2022-07-29T20:33:59.935Z,97.85
2022-07-29T20:36:26.721Z,98.19
2022-07-29T20:38:53.127Z,97.32
2022-07-29T20:41:19.555Z,97.82
2022-07-29T20:43:46.423Z,97.13
2022-07-29T20:46:13.140Z,95.84
2022-07-29T20:48:40.693Z,94.04
2022-07-29T20:51:07.387Z,95.03
2022-07-29T20:53:33.777Z,96.59
2022-07-29T20:56:00.283Z,95.99
2022-07-29T20:58:26.891Z,94.59
2022-07-29T21:00:53.278Z,96.35
2022-07-29T21:03:19.663Z,97.43
2022-07-29T21:05:46.115Z,98.25
2022-07-29T21:08:12.604Z,100.00
2022-07-29T21:10:39.263Z,100.00
2022-07-29T21:13:05.966Z,100.00
2022-07-29T21:15:32.455Z,98.65
2022-07-29T21:18:03.755Z,98.66
2022-07-29T21:20:30.338Z,100.00
2022-07-29T21:22:56.783Z,99.79
2022-07-29T21:25:24.216Z,99.41
2022-07-29T21:28:10.158Z,100.00
2022-07-29T21:30:36.543Z,100.00
2022-07-29T21:33:03.905Z,100.00
2022-07-29T21:36:01.519Z,100.00
2022-07-29T21:38:18.326Z,100.00
2022-07-29T21:40:48.828Z,100.00
2022-07-29T21:43:15.737Z,100.00
2022-07-29T21:45:43.696Z,100.00
2022-07-29T21:48:10.414Z,100.00
2022-07-29T21:50:36.772Z,100.00
2022-07-29T21:53:03.270Z,100.00
2022-07-29T21:55:32.461Z,100.00
2022-07-29T21:57:58.917Z,100.00
2022-07-29T22:00:25.748Z,100.00
2022-07-29T22:02:53.514Z,100.00
2022-07-29T22:05:21.147Z,100.00
2022-07-29T22:07:56.113Z,100.00
2022-07-29T22:10:25.800Z,100.00
2022-07-29T22:12:54.452Z,100.00
2022-07-29T22:15:21.243Z,100.00
2022-07-29T22:17:47.744Z,100.00
2022-07-29T22:20:14.237Z,100.00
2022-07-29T22:22:40.838Z,100.00
2022-07-29T22:25:08.320Z,100.00
2022-07-29T22:27:35.393Z,100.00
2022-07-29T22:30:01.755Z,100.00
2022-07-29T22:32:28.370Z,100.00
2022-07-29T22:34:54.727Z,100.00
2022-07-29T22:37:21.081Z,100.00
2022-07-29T22:39:47.688Z,100.00
2022-07-29T22:42:14.207Z,100.00
2022-07-29T22:44:40.608Z,100.00
2022-07-29T22:47:07.120Z,100.00
2022-07-29T22:49:33.568Z,100.00
2022-07-29T22:52:00.327Z,100.00
2022-07-29T22:54:27.007Z,100.00
2022-07-29T22:56:53.503Z,100.00
2022-07-29T22:59:19.906Z,100.00
2022-07-29T23:01:46.448Z,100.00
2022-07-29T23:04:12.890Z,100.00
2022-07-29T23:06:39.468Z,100.00
2022-07-29T23:09:06.266Z,100.00
2022-07-29T23:11:32.611Z,100.00
2022-07-29T23:13:58.961Z,100.00
2022-07-29T23:16:26.739Z,100.00
2022-07-29T23:18:53.922Z,100.00
2022-07-29T23:21:20.887Z,100.00
2022-07-29T23:23:48.489Z,100.00
2022-07-29T23:26:16.776Z,100.00
2022-07-29T23:28:43.927Z,100.00
2022-07-29T23:31:10.738Z,100.00
2022-07-29T23:33:37.159Z,100.00
2022-07-29T23:36:03.810Z,100.00
2022-07-29T23:38:30.441Z,100.00
2022-07-29T23:40:58.506Z,100.00
2022-07-29T23:43:25.075Z,100.00
2022-07-29T23:45:51.505Z,100.00
2022-07-29T23:48:20.737Z,100.00
2022-07-29T23:50:47.136Z,100.00
2022-07-29T23:53:13.561Z,100.00
2022-07-29T23:55:39.944Z,100.00
2022-07-29T23:58:06.318Z,100.00
